ADDS METAR Data INFO
IDs: Format: Raw Decoded Include TAF

Data at: 0101 UTC 21 Oct 2017

KTVC 210053Z 22006KT 10SM BKN250 20/09 A3001 RMK AO2 SLP163 T02000089
KTVC 202353Z 20004KT 10SM BKN250 22/09 A3001 RMK AO2 SLP161 T02170094 10261 20211 53002
KTVC 202253Z 22006KT 10SM BKN250 23/09 A3000 RMK AO2 SLP157 T02280089
KTVC 202153Z 21008KT 10SM FEW055 BKN250 24/09 A3000 RMK AO2 SLP157 T02440094
KTVC 202053Z 21009G19KT 10SM FEW055 BKN250 26/09 A3000 RMK AO2 SLP157 T02560094 56016
KTVC 201953Z 21009G17KT 170V260 10SM BKN250 26/10 A3001 RMK AO2 SLP163 T02560100
KTVC 201853Z 21008G16KT 170V250 10SM SCT250 26/11 A3003 RMK AO2 SLP166 T02610106
KTVC 201753Z 20010G19KT 10SM SCT250 25/10 A3005 RMK AO2 SLP174 T02500100 10250 20111 58019
KTVC 201653Z 20007KT 160V230 10SM FEW250 23/11 A3007 RMK AO2 SLP183 T02330106
KTVC 201553Z VRB04KT 10SM CLR 21/09 A3009 RMK AO2 SLP190 T02110094
KTVC 201453Z VRB05KT 10SM CLR 18/08 A3010 RMK AO2 SLP195 T01830078 58001
KTVC 201353Z VRB03KT 10SM FEW250 15/04 A3011 RMK AO2 SLP198 T01500044
KTVC 201253Z 15004KT 10SM FEW250 12/01 A3012 RMK AO2 SLP200 T01170011
KTVC 201153Z 15004KT 10SM FEW250 11/01 A3011 RMK AO2 SLP197 T01110011 10122 20100 50001
KTVC 201053Z 16004KT 10SM CLR 11/01 A3011 RMK AO2 SLP197 T01110011
KTVC 200953Z AUTO 13004KT 10SM CLR 11/02 A3011 RMK AO2 SLP197 T01060022
KTVC 200853Z AUTO 00000KT 10SM CLR 11/03 A3011 RMK AO2 SLP195 T01060028 55003
KTVC 200753Z AUTO 00000KT 10SM CLR 11/03 A3010 RMK AO2 SLP195 T01110033
KTVC 200653Z AUTO VRB03KT 10SM CLR 11/04 A3011 RMK AO2 SLP197 T01110039
KTVC 200553Z AUTO VRB03KT 10SM CLR 12/04 A3012 RMK AO2 SLP199 T01170039 10133 20094 50000
KTVC 200453Z AUTO 21007KT 10SM CLR 12/03 A3012 RMK AO2 SLP200 T01170033 401890094
KTVC 200353Z AUTO 17004KT 10SM CLR 11/02 A3011 RMK AO2 SLP198 T01110022
KTVC 200253Z AUTO 00000KT 10SM CLR 11/02 A3011 RMK AO2 SLP199 T01060022 53005
KTVC 200153Z 15003KT 10SM SCT250 11/02 A3010 RMK AO2 SLP196 LAST T01110017
KTVC 200053Z 00000KT 10SM SCT250 12/01 A3010 RMK AO2 SLP194 T01220011
KTVC 192353Z 00000KT 10SM BKN250 12/02 A3010 RMK AO2 SLP194 T01170022 10189 20117 53008
KTVC 192253Z 22003KT 10SM BKN250 15/01 A3008 RMK AO2 SLP187 T01500011
KTVC 192153Z 25009G15KT 10SM BKN250 17/00 A3008 RMK AO2 SLP187 T01670000
KTVC 192053Z 26014KT 10SM BKN250 17/M01 A3007 RMK AO2 SLP184 T01671011 53006
KTVC 191953Z 27013KT 10SM BKN250 18/M03 A3006 RMK AO2 SLP179 T01781028
KTVC 191853Z 29016G19KT 10SM BKN250 18/M06 A3005 RMK AO2 SLP176 T01831061
KTVC 191753Z 28013G25KT 10SM BKN250 18/M07 A3006 RMK AO2 SLP177 T01831072 10183 20106 50006
KTVC 191653Z 27019KT 10SM BKN250 17/M06 A3006 RMK AO2 SLP179 T01721061
KTVC 191553Z 26014KT 10SM BKN250 17/M02 A3005 RMK AO2 SLP175 T01671022
KTVC 191453Z 27012KT 10SM BKN250 16/00 A3004 RMK AO2 SLP171 T01560000 51025
KTVC 191353Z 24006KT 10SM BKN250 13/01 A3001 RMK AO2 SLP164 T01280006